sensor_id;sensor_type;location;lat;lon;timestamp;temperature;humidity
13796;SHT30;40911;51.552;9.874;2023-02-28T00:07:16;-1.59;82.31
13796;SHT30;40911;51.552;9.874;2023-02-28T00:09:38;-1.70;83.30
13796;SHT30;40911;51.552;9.874;2023-02-28T00:11:59;-1.66;82.75
13796;SHT30;40911;51.552;9.874;2023-02-28T00:14:23;-1.63;82.54
13796;SHT30;40911;51.552;9.874;2023-02-28T00:16:45;-1.54;82.37
13796;SHT30;40911;51.552;9.874;2023-02-28T00:19:06;-1.54;82.33
13796;SHT30;40911;51.552;9.874;2023-02-28T00:21:28;-1.62;83.27
13796;SHT30;40911;51.552;9.874;2023-02-28T00:23:51;-1.58;83.32
13796;SHT30;40911;51.552;9.874;2023-02-28T00:26:12;-1.65;83.74
13796;SHT30;40911;51.552;9.874;2023-02-28T00:28:34;-1.60;83.50
13796;SHT30;40911;51.552;9.874;2023-02-28T00:30:55;-1.51;83.44
13796;SHT30;40911;51.552;9.874;2023-02-28T00:33:17;-1.49;83.07
13796;SHT30;40911;51.552;9.874;2023-02-28T00:35:39;-1.44;82.67
13796;SHT30;40911;51.552;9.874;2023-02-28T00:38:01;-1.37;82.32
13796;SHT30;40911;51.552;9.874;2023-02-28T00:40:24;-1.41;83.28
13796;SHT30;40911;51.552;9.874;2023-02-28T00:42:45;-1.38;83.11
13796;SHT30;40911;51.552;9.874;2023-02-28T00:45:07;-1.34;82.77
13796;SHT30;40911;51.552;9.874;2023-02-28T00:47:29;-1.47;83.75
13796;SHT30;40911;51.552;9.874;2023-02-28T00:49:51;-1.41;83.61
13796;SHT30;40911;51.552;9.874;2023-02-28T00:52:12;-1.35;83.02
13796;SHT30;40911;51.552;9.874;2023-02-28T00:54:34;-1.37;83.02
13796;SHT30;40911;51.552;9.874;2023-02-28T00:56:57;-1.37;82.80
13796;SHT30;40911;51.552;9.874;2023-02-28T00:59:18;-1.31;82.27
13796;SHT30;40911;51.552;9.874;2023-02-28T01:01:40;-1.32;82.38
13796;SHT30;40911;51.552;9.874;2023-02-28T01:04:02;-1.34;82.36
13796;SHT30;40911;51.552;9.874;2023-02-28T01:06:24;-1.31;82.58
13796;SHT30;40911;51.552;9.874;2023-02-28T01:08:45;-1.37;83.21
13796;SHT30;40911;51.552;9.874;2023-02-28T01:11:09;-1.31;82.92
13796;SHT30;40911;51.552;9.874;2023-02-28T01:13:32;-1.31;83.06
13796;SHT30;40911;51.552;9.874;2023-02-28T01:15:55;-1.34;82.90
13796;SHT30;40911;51.552;9.874;2023-02-28T01:18:17;-1.39;83.34
13796;SHT30;40911;51.552;9.874;2023-02-28T01:20:39;-1.37;83.50
13796;SHT30;40911;51.552;9.874;2023-02-28T01:23:00;-1.34;83.28
13796;SHT30;40911;51.552;9.874;2023-02-28T01:25:22;-1.35;82.96
13796;SHT30;40911;51.552;9.874;2023-02-28T01:27:43;-1.32;82.99
13796;SHT30;40911;51.552;9.874;2023-02-28T01:30:07;-1.32;83.20
13796;SHT30;40911;51.552;9.874;2023-02-28T01:32:29;-1.35;83.27
13796;SHT30;40911;51.552;9.874;2023-02-28T01:34:51;-1.41;82.95
13796;SHT30;40911;51.552;9.874;2023-02-28T01:37:12;-1.35;82.99
13796;SHT30;40911;51.552;9.874;2023-02-28T01:39:34;-1.41;83.00
13796;SHT30;40911;51.552;9.874;2023-02-28T01:41:55;-1.39;83.00
13796;SHT30;40911;51.552;9.874;2023-02-28T01:47:17;-1.51;82.89
13796;SHT30;40911;51.552;9.874;2023-02-28T01:49:39;-1.48;82.87
13796;SHT30;40911;51.552;9.874;2023-02-28T01:52:01;-1.51;82.62
13796;SHT30;40911;51.552;9.874;2023-02-28T01:54:26;-1.51;82.43
13796;SHT30;40911;51.552;9.874;2023-02-28T01:56:52;-1.52;82.08
13796;SHT30;40911;51.552;9.874;2023-02-28T01:59:20;-1.65;82.73
13796;SHT30;40911;51.552;9.874;2023-02-28T02:01:43;-1.72;83.14
13796;SHT30;40911;51.552;9.874;2023-02-28T02:04:06;-1.65;82.87
13796;SHT30;40911;51.552;9.874;2023-02-28T02:06:31;-1.58;82.10
13796;SHT30;40911;51.552;9.874;2023-02-28T02:08:55;-1.65;82.42
13796;SHT30;40911;51.552;9.874;2023-02-28T02:11:19;-1.66;82.25
13796;SHT30;40911;51.552;9.874;2023-02-28T02:13:53;-1.59;81.83
13796;SHT30;40911;51.552;9.874;2023-02-28T02:16:34;-1.60;81.73
13796;SHT30;40911;51.552;9.874;2023-02-28T02:19:01;-1.79;82.90
13796;SHT30;40911;51.552;9.874;2023-02-28T02:24:54;-1.72;82.04
13796;SHT30;40911;51.552;9.874;2023-02-28T02:27:37;-1.73;82.71
13796;SHT30;40911;51.552;9.874;2023-02-28T02:33:23;-1.70;82.24
13796;SHT30;40911;51.552;9.874;2023-02-28T02:35:53;-1.80;83.08
13796;SHT30;40911;51.552;9.874;2023-02-28T02:38:22;-1.70;82.49
13796;SHT30;40911;51.552;9.874;2023-02-28T02:41:07;-1.70;82.21
13796;SHT30;40911;51.552;9.874;2023-02-28T02:43:32;-1.69;82.55
13796;SHT30;40911;51.552;9.874;2023-02-28T02:45:59;-1.72;82.46
13796;SHT30;40911;51.552;9.874;2023-02-28T02:48:25;-1.70;82.51
13796;SHT30;40911;51.552;9.874;2023-02-28T02:50:51;-1.73;82.63
13796;SHT30;40911;51.552;9.874;2023-02-28T02:53:17;-1.68;82.54
13796;SHT30;40911;51.552;9.874;2023-02-28T02:55:41;-1.72;82.73
13796;SHT30;40911;51.552;9.874;2023-02-28T02:58:05;-1.66;82.31
13796;SHT30;40911;51.552;9.874;2023-02-28T03:00:32;-1.63;82.15
13796;SHT30;40911;51.552;9.874;2023-02-28T03:02:55;-1.63;82.40
13796;SHT30;40911;51.552;9.874;2023-02-28T03:05:20;-1.60;82.40
13796;SHT30;40911;51.552;9.874;2023-02-28T03:07:44;-1.56;82.13
13796;SHT30;40911;51.552;9.874;2023-02-28T03:10:27;-1.55;81.51
13796;SHT30;40911;51.552;9.874;2023-02-28T03:12:53;-1.52;81.99
13796;SHT30;40911;51.552;9.874;2023-02-28T03:15:21;-1.48;81.41
13796;SHT30;40911;51.552;9.874;2023-02-28T03:17:58;-1.49;81.34
13796;SHT30;40911;51.552;9.874;2023-02-28T03:20:32;-1.54;82.30
13796;SHT30;40911;51.552;9.874;2023-02-28T03:23:05;-1.54;82.51
13796;SHT30;40911;51.552;9.874;2023-02-28T03:25:33;-1.48;82.19
13796;SHT30;40911;51.552;9.874;2023-02-28T03:28:02;-1.45;81.93
13796;SHT30;40911;51.552;9.874;2023-02-28T03:30:30;-1.49;81.98
13796;SHT30;40911;51.552;9.874;2023-02-28T03:32:58;-1.45;81.86
13796;SHT30;40911;51.552;9.874;2023-02-28T03:35:23;-1.44;81.94
13796;SHT30;40911;51.552;9.874;2023-02-28T03:37:48;-1.41;82.15
13796;SHT30;40911;51.552;9.874;2023-02-28T03:40:15;-1.44;82.47
13796;SHT30;40911;51.552;9.874;2023-02-28T03:42:42;-1.38;82.24
13796;SHT30;40911;51.552;9.874;2023-02-28T03:45:05;-1.39;82.30
13796;SHT30;40911;51.552;9.874;2023-02-28T03:47:33;-1.38;81.81
13796;SHT30;40911;51.552;9.874;2023-02-28T03:50:01;-1.35;81.88
13796;SHT30;40911;51.552;9.874;2023-02-28T03:52:27;-1.39;82.32
13796;SHT30;40911;51.552;9.874;2023-02-28T03:54:54;-1.32;82.38
13796;SHT30;40911;51.552;9.874;2023-02-28T03:57:23;-1.32;81.96
13796;SHT30;40911;51.552;9.874;2023-02-28T03:59:49;-1.31;82.05
13796;SHT30;40911;51.552;9.874;2023-02-28T04:02:13;-1.32;81.71
13796;SHT30;40911;51.552;9.874;2023-02-28T04:04:35;-1.30;81.10
13796;SHT30;40911;51.552;9.874;2023-02-28T04:07:00;-1.30;81.44
13796;SHT30;40911;51.552;9.874;2023-02-28T04:09:22;-1.25;81.27
13796;SHT30;40911;51.552;9.874;2023-02-28T04:11:46;-1.24;81.30
13796;SHT30;40911;51.552;9.874;2023-02-28T04:14:11;-1.28;81.59
13796;SHT30;40911;51.552;9.874;2023-02-28T04:16:34;-1.24;81.61
13796;SHT30;40911;51.552;9.874;2023-02-28T04:18:56;-1.25;81.76
13796;SHT30;40911;51.552;9.874;2023-02-28T04:21:22;-1.24;81.83
13796;SHT30;40911;51.552;9.874;2023-02-28T04:23:43;-1.23;82.05
13796;SHT30;40911;51.552;9.874;2023-02-28T04:26:05;-1.21;81.99
13796;SHT30;40911;51.552;9.874;2023-02-28T04:28:27;-1.23;82.12
13796;SHT30;40911;51.552;9.874;2023-02-28T04:30:55;-1.23;82.40
13796;SHT30;40911;51.552;9.874;2023-02-28T04:33:17;-1.20;82.51
13796;SHT30;40911;51.552;9.874;2023-02-28T04:35:38;-1.20;82.48
13796;SHT30;40911;51.552;9.874;2023-02-28T04:38:00;-1.24;82.82
13796;SHT30;40911;51.552;9.874;2023-02-28T04:40:21;-1.20;82.66
13796;SHT30;40911;51.552;9.874;2023-02-28T04:42:43;-1.17;82.97
13796;SHT30;40911;51.552;9.874;2023-02-28T04:45:06;-1.20;82.97
13796;SHT30;40911;51.552;9.874;2023-02-28T04:47:31;-1.20;83.10
13796;SHT30;40911;51.552;9.874;2023-02-28T04:49:53;-1.21;83.13
13796;SHT30;40911;51.552;9.874;2023-02-28T04:52:14;-1.21;83.15
13796;SHT30;40911;51.552;9.874;2023-02-28T04:54:36;-1.17;83.05
13796;SHT30;40911;51.552;9.874;2023-02-28T04:56:59;-1.17;83.29
13796;SHT30;40911;51.552;9.874;2023-02-28T04:59:21;-1.17;82.63
13796;SHT30;40911;51.552;9.874;2023-02-28T05:01:46;-1.16;82.77
13796;SHT30;40911;51.552;9.874;2023-02-28T05:04:09;-1.14;82.51
13796;SHT30;40911;51.552;9.874;2023-02-28T05:06:32;-1.14;82.46
13796;SHT30;40911;51.552;9.874;2023-02-28T05:08:54;-1.13;82.36
13796;SHT30;40911;51.552;9.874;2023-02-28T05:11:17;-1.10;82.59
13796;SHT30;40911;51.552;9.874;2023-02-28T05:13:39;-1.09;82.46
13796;SHT30;40911;51.552;9.874;2023-02-28T05:16:00;-1.06;82.42
13796;SHT30;40911;51.552;9.874;2023-02-28T05:18:22;-1.06;82.64
13796;SHT30;40911;51.552;9.874;2023-02-28T05:20:45;-1.07;82.57
13796;SHT30;40911;51.552;9.874;2023-02-28T05:23:08;-1.07;82.43
13796;SHT30;40911;51.552;9.874;2023-02-28T05:25:30;-1.07;82.40
13796;SHT30;40911;51.552;9.874;2023-02-28T05:27:51;-1.07;82.38
13796;SHT30;40911;51.552;9.874;2023-02-28T05:30:13;-1.07;82.04
13796;SHT30;40911;51.552;9.874;2023-02-28T05:32:35;-1.09;82.15
13796;SHT30;40911;51.552;9.874;2023-02-28T05:34:57;-1.07;82.50
13796;SHT30;40911;51.552;9.874;2023-02-28T05:37:20;-1.10;82.50
13796;SHT30;40911;51.552;9.874;2023-02-28T05:39:41;-1.09;82.36
13796;SHT30;40911;51.552;9.874;2023-02-28T05:42:03;-1.09;82.55
13796;SHT30;40911;51.552;9.874;2023-02-28T05:44:24;-1.10;82.60
13796;SHT30;40911;51.552;9.874;2023-02-28T05:46:46;-1.13;82.60
13796;SHT30;40911;51.552;9.874;2023-02-28T05:49:08;-1.07;82.69
13796;SHT30;40911;51.552;9.874;2023-02-28T05:51:29;-1.13;82.80
13796;SHT30;40911;51.552;9.874;2023-02-28T05:53:52;-1.09;82.59
13796;SHT30;40911;51.552;9.874;2023-02-28T05:56:14;-1.09;82.51
13796;SHT30;40911;51.552;9.874;2023-02-28T05:58:35;-1.10;82.90
13796;SHT30;40911;51.552;9.874;2023-02-28T06:00:57;-1.11;82.92
13796;SHT30;40911;51.552;9.874;2023-02-28T06:03:18;-1.11;82.87
13796;SHT30;40911;51.552;9.874;2023-02-28T06:05:40;-1.09;82.69
13796;SHT30;40911;51.552;9.874;2023-02-28T06:08:02;-1.07;82.84
13796;SHT30;40911;51.552;9.874;2023-02-28T06:10:24;-1.07;82.84
13796;SHT30;40911;51.552;9.874;2023-02-28T06:12:46;-1.09;82.99
13796;SHT30;40911;51.552;9.874;2023-02-28T06:15:12;-1.06;83.00
13796;SHT30;40911;51.552;9.874;2023-02-28T06:17:34;-1.09;83.23
13796;SHT30;40911;51.552;9.874;2023-02-28T06:19:55;-1.10;82.84
13796;SHT30;40911;51.552;9.874;2023-02-28T06:22:17;-1.03;82.63
13796;SHT30;40911;51.552;9.874;2023-02-28T06:24:39;-1.03;82.81
13796;SHT30;40911;51.552;9.874;2023-02-28T06:27:02;-1.09;83.02
13796;SHT30;40911;51.552;9.874;2023-02-28T06:29:25;-1.04;83.20
13796;SHT30;40911;51.552;9.874;2023-02-28T06:31:46;-0.97;82.74
13796;SHT30;40911;51.552;9.874;2023-02-28T06:34:08;-0.97;82.39
13796;SHT30;40911;51.552;9.874;2023-02-28T06:36:31;-0.91;82.10
13796;SHT30;40911;51.552;9.874;2023-02-28T06:38:53;-0.94;82.11
13796;SHT30;40911;51.552;9.874;2023-02-28T06:41:16;-0.91;82.41
13796;SHT30;40911;51.552;9.874;2023-02-28T06:43:41;-0.94;82.46
13796;SHT30;40911;51.552;9.874;2023-02-28T06:46:05;-0.90;82.54
13796;SHT30;40911;51.552;9.874;2023-02-28T06:48:27;-0.89;82.34
13796;SHT30;40911;51.552;9.874;2023-02-28T06:50:49;-0.83;81.71
13796;SHT30;40911;51.552;9.874;2023-02-28T06:53:10;-0.83;81.59
13796;SHT30;40911;51.552;9.874;2023-02-28T06:55:32;-0.80;81.99
13796;SHT30;40911;51.552;9.874;2023-02-28T06:57:54;-0.76;82.05
13796;SHT30;40911;51.552;9.874;2023-02-28T07:00:18;-0.70;82.04
13796;SHT30;40911;51.552;9.874;2023-02-28T07:02:39;-0.65;81.40
13796;SHT30;40911;51.552;9.874;2023-02-28T07:05:01;-0.68;81.83
13796;SHT30;40911;51.552;9.874;2023-02-28T07:07:23;-0.56;81.80
13796;SHT30;40911;51.552;9.874;2023-02-28T07:09:45;-0.53;81.72
13796;SHT30;40911;51.552;9.874;2023-02-28T07:12:07;-0.42;82.19
13796;SHT30;40911;51.552;9.874;2023-02-28T07:14:28;-0.45;82.28
13796;SHT30;40911;51.552;9.874;2023-02-28T07:16:51;-0.41;82.30
13796;SHT30;40911;51.552;9.874;2023-02-28T07:19:13;-0.23;82.02
13796;SHT30;40911;51.552;9.874;2023-02-28T07:21:34;0.18;81.16
13796;SHT30;40911;51.552;9.874;2023-02-28T07:23:56;0.31;80.58
13796;SHT30;40911;51.552;9.874;2023-02-28T07:26:18;0.28;80.04
13796;SHT30;40911;51.552;9.874;2023-02-28T07:28:40;0.51;79.33
13796;SHT30;40911;51.552;9.874;2023-02-28T07:31:03;1.08;78.91
13796;SHT30;40911;51.552;9.874;2023-02-28T07:33:27;1.13;78.32
13796;SHT30;40911;51.552;9.874;2023-02-28T07:35:48;1.16;77.89
13796;SHT30;40911;51.552;9.874;2023-02-28T07:38:10;1.08;77.66
13796;SHT30;40911;51.552;9.874;2023-02-28T07:40:34;0.94;76.84
13796;SHT30;40911;51.552;9.874;2023-02-28T07:42:56;1.24;77.63
13796;SHT30;40911;51.552;9.874;2023-02-28T07:45:17;1.21;77.89
13796;SHT30;40911;51.552;9.874;2023-02-28T07:47:41;1.19;77.24
13796;SHT30;40911;51.552;9.874;2023-02-28T07:50:05;1.44;77.17
13796;SHT30;40911;51.552;9.874;2023-02-28T07:52:27;1.61;76.66
13796;SHT30;40911;51.552;9.874;2023-02-28T07:54:48;2.21;76.64
13796;SHT30;40911;51.552;9.874;2023-02-28T07:57:10;1.99;75.42
13796;SHT30;40911;51.552;9.874;2023-02-28T07:59:31;2.04;75.17
13796;SHT30;40911;51.552;9.874;2023-02-28T08:01:53;1.76;73.89
13796;SHT30;40911;51.552;9.874;2023-02-28T08:04:15;1.90;74.33
13796;SHT30;40911;51.552;9.874;2023-02-28T08:06:37;2.44;72.11
13796;SHT30;40911;51.552;9.874;2023-02-28T08:08:59;2.80;71.66
13796;SHT30;40911;51.552;9.874;2023-02-28T08:11:21;2.45;70.89
13796;SHT30;40911;51.552;9.874;2023-02-28T08:13:43;2.89;71.46
13796;SHT30;40911;51.552;9.874;2023-02-28T08:16:05;2.92;70.76
13796;SHT30;40911;51.552;9.874;2023-02-28T08:18:26;2.62;67.34
13796;SHT30;40911;51.552;9.874;2023-02-28T08:20:48;2.73;67.86
13796;SHT30;40911;51.552;9.874;2023-02-28T08:23:11;2.69;65.61
13796;SHT30;40911;51.552;9.874;2023-02-28T08:25:33;2.89;68.76
13796;SHT30;40911;51.552;9.874;2023-02-28T08:27:54;3.00;67.59
13796;SHT30;40911;51.552;9.874;2023-02-28T08:30:16;3.65;66.91
13796;SHT30;40911;51.552;9.874;2023-02-28T08:32:37;3.41;65.33
13796;SHT30;40911;51.552;9.874;2023-02-28T08:34:59;3.44;65.24
13796;SHT30;40911;51.552;9.874;2023-02-28T08:37:22;3.27;63.76
13796;SHT30;40911;51.552;9.874;2023-02-28T08:39:44;3.23;63.33
13796;SHT30;40911;51.552;9.874;2023-02-28T08:42:06;3.37;63.87
13796;SHT30;40911;51.552;9.874;2023-02-28T08:44:28;3.44;63.91
13796;SHT30;40911;51.552;9.874;2023-02-28T08:46:49;3.38;63.16
13796;SHT30;40911;51.552;9.874;2023-02-28T08:49:11;3.40;62.73
13796;SHT30;40911;51.552;9.874;2023-02-28T08:51:32;3.37;62.33
13796;SHT30;40911;51.552;9.874;2023-02-28T08:53:54;3.54;61.95
13796;SHT30;40911;51.552;9.874;2023-02-28T08:56:18;3.15;61.64
13796;SHT30;40911;51.552;9.874;2023-02-28T08:58:40;3.54;62.00
13796;SHT30;40911;51.552;9.874;2023-02-28T09:01:08;3.87;61.23
13796;SHT30;40911;51.552;9.874;2023-02-28T09:03:30;3.71;61.48
13796;SHT30;40911;51.552;9.874;2023-02-28T09:05:53;3.56;59.45
13796;SHT30;40911;51.552;9.874;2023-02-28T09:08:15;3.15;60.02
13796;SHT30;40911;51.552;9.874;2023-02-28T09:10:36;3.78;60.67
13796;SHT30;40911;51.552;9.874;2023-02-28T09:12:59;3.58;60.37
13796;SHT30;40911;51.552;9.874;2023-02-28T09:15:21;3.63;61.46
13796;SHT30;40911;51.552;9.874;2023-02-28T09:17:43;3.87;60.90
13796;SHT30;40911;51.552;9.874;2023-02-28T09:20:05;3.11;59.84
13796;SHT30;40911;51.552;9.874;2023-02-28T09:22:27;3.79;61.46
13796;SHT30;40911;51.552;9.874;2023-02-28T09:24:49;4.00;60.56
13796;SHT30;40911;51.552;9.874;2023-02-28T09:27:10;3.62;60.85
13796;SHT30;40911;51.552;9.874;2023-02-28T09:29:34;3.78;59.42
13796;SHT30;40911;51.552;9.874;2023-02-28T09:31:55;3.93;59.46
13796;SHT30;40911;51.552;9.874;2023-02-28T09:34:18;4.11;59.70
13796;SHT30;40911;51.552;9.874;2023-02-28T09:36:40;3.50;59.30
13796;SHT30;40911;51.552;9.874;2023-02-28T09:39:02;3.37;58.88
13796;SHT30;40911;51.552;9.874;2023-02-28T09:41:25;3.35;59.71
13796;SHT30;40911;51.552;9.874;2023-02-28T09:43:53;3.24;59.78
13796;SHT30;40911;51.552;9.874;2023-02-28T09:46:28;3.83;58.80
13796;SHT30;40911;51.552;9.874;2023-02-28T09:48:51;3.13;59.31
13796;SHT30;40911;51.552;9.874;2023-02-28T09:51:30;3.41;58.39
13796;SHT30;40911;51.552;9.874;2023-02-28T09:53:54;3.06;58.38
13796;SHT30;40911;51.552;9.874;2023-02-28T09:56:18;2.89;59.25
13796;SHT30;40911;51.552;9.874;2023-02-28T09:58:49;2.73;59.75
13796;SHT30;40911;51.552;9.874;2023-02-28T10:01:23;3.18;59.41
13796;SHT30;40911;51.552;9.874;2023-02-28T10:03:50;2.87;59.31
13796;SHT30;40911;51.552;9.874;2023-02-28T10:06:18;2.86;59.87
13796;SHT30;40911;51.552;9.874;2023-02-28T10:08:45;3.54;58.92
13796;SHT30;40911;51.552;9.874;2023-02-28T10:11:11;3.71;58.15
13796;SHT30;40911;51.552;9.874;2023-02-28T10:13:35;3.42;58.29
13796;SHT30;40911;51.552;9.874;2023-02-28T10:15:59;3.23;58.56
13796;SHT30;40911;51.552;9.874;2023-02-28T10:18:25;3.72;58.39
13796;SHT30;40911;51.552;9.874;2023-02-28T10:20:50;3.48;58.50
13796;SHT30;40911;51.552;9.874;2023-02-28T10:23:17;3.73;58.31
13796;SHT30;40911;51.552;9.874;2023-02-28T10:25:43;3.71;58.17
13796;SHT30;40911;51.552;9.874;2023-02-28T10:28:11;4.07;58.12
13796;SHT30;40911;51.552;9.874;2023-02-28T10:30:34;3.85;58.18
13796;SHT30;40911;51.552;9.874;2023-02-28T10:32:55;4.20;58.01
13796;SHT30;40911;51.552;9.874;2023-02-28T10:35:19;4.37;57.93
13796;SHT30;40911;51.552;9.874;2023-02-28T10:37:46;4.57;57.66
13796;SHT30;40911;51.552;9.874;2023-02-28T10:40:25;5.06;57.60
13796;SHT30;40911;51.552;9.874;2023-02-28T10:42:55;4.80;56.86
13796;SHT30;40911;51.552;9.874;2023-02-28T10:45:18;5.10;57.30
13796;SHT30;40911;51.552;9.874;2023-02-28T10:47:49;5.08;56.64
13796;SHT30;40911;51.552;9.874;2023-02-28T10:50:28;4.66;56.57
13796;SHT30;40911;51.552;9.874;2023-02-28T10:52:51;4.85;56.89
13796;SHT30;40911;51.552;9.874;2023-02-28T10:55:19;5.01;56.64
13796;SHT30;40911;51.552;9.874;2023-02-28T10:57:41;5.00;56.21
13796;SHT30;40911;51.552;9.874;2023-02-28T11:00:14;4.80;56.61
13796;SHT30;40911;51.552;9.874;2023-02-28T11:02:36;4.54;56.33
13796;SHT30;40911;51.552;9.874;2023-02-28T11:05:01;4.57;56.69
13796;SHT30;40911;51.552;9.874;2023-02-28T11:07:23;5.04;57.36
13796;SHT30;40911;51.552;9.874;2023-02-28T11:09:49;4.96;56.62
13796;SHT30;40911;51.552;9.874;2023-02-28T11:12:20;4.79;56.53
13796;SHT30;40911;51.552;9.874;2023-02-28T11:14:47;4.97;56.64
13796;SHT30;40911;51.552;9.874;2023-02-28T11:17:14;4.99;56.61
13796;SHT30;40911;51.552;9.874;2023-02-28T11:19:44;5.06;56.30
13796;SHT30;40911;51.552;9.874;2023-02-28T11:22:06;4.87;56.63
13796;SHT30;40911;51.552;9.874;2023-02-28T11:24:28;5.34;56.46
13796;SHT30;40911;51.552;9.874;2023-02-28T11:26:52;4.65;56.28
13796;SHT30;40911;51.552;9.874;2023-02-28T11:29:20;4.83;56.27
13796;SHT30;40911;51.552;9.874;2023-02-28T11:31:42;4.90;57.02
13796;SHT30;40911;51.552;9.874;2023-02-28T11:34:23;4.99;57.09
13796;SHT30;40911;51.552;9.874;2023-02-28T11:36:45;4.86;56.55
13796;SHT30;40911;51.552;9.874;2023-02-28T11:39:10;5.18;57.32
13796;SHT30;40911;51.552;9.874;2023-02-28T11:41:44;5.10;56.84
13796;SHT30;40911;51.552;9.874;2023-02-28T11:44:33;4.92;57.29
13796;SHT30;40911;51.552;9.874;2023-02-28T11:46:59;4.87;56.70
13796;SHT30;40911;51.552;9.874;2023-02-28T11:49:31;4.97;56.91
13796;SHT30;40911;51.552;9.874;2023-02-28T11:51:59;4.86;57.18
13796;SHT30;40911;51.552;9.874;2023-02-28T11:54:41;4.55;57.15
13796;SHT30;40911;51.552;9.874;2023-02-28T11:57:18;4.52;57.65
13796;SHT30;40911;51.552;9.874;2023-02-28T11:59:52;4.55;57.61
13796;SHT30;40911;51.552;9.874;2023-02-28T12:02:24;4.66;57.59
13796;SHT30;40911;51.552;9.874;2023-02-28T12:04:52;4.64;57.81
13796;SHT30;40911;51.552;9.874;2023-02-28T12:07:20;4.65;57.98
13796;SHT30;40911;51.552;9.874;2023-02-28T12:09:55;4.61;58.00
13796;SHT30;40911;51.552;9.874;2023-02-28T12:12:26;4.45;57.86
13796;SHT30;40911;51.552;9.874;2023-02-28T12:15:11;4.76;57.79
13796;SHT30;40911;51.552;9.874;2023-02-28T12:17:46;4.89;57.62
13796;SHT30;40911;51.552;9.874;2023-02-28T12:20:21;5.04;57.54
13796;SHT30;40911;51.552;9.874;2023-02-28T12:22:50;4.76;57.60
13796;SHT30;40911;51.552;9.874;2023-02-28T12:25:43;4.93;57.47
13796;SHT30;40911;51.552;9.874;2023-02-28T12:28:09;4.92;57.82
13796;SHT30;40911;51.552;9.874;2023-02-28T12:30:39;4.49;57.75
13796;SHT30;40911;51.552;9.874;2023-02-28T12:33:05;4.83;58.14
13796;SHT30;40911;51.552;9.874;2023-02-28T12:35:32;4.47;57.84
13796;SHT30;40911;51.552;9.874;2023-02-28T12:37:57;4.51;58.19
13796;SHT30;40911;51.552;9.874;2023-02-28T12:40:25;4.78;57.92
13796;SHT30;40911;51.552;9.874;2023-02-28T12:42:50;4.87;57.75
13796;SHT30;40911;51.552;9.874;2023-02-28T12:45:18;4.86;57.68
13796;SHT30;40911;51.552;9.874;2023-02-28T12:47:44;4.62;57.72
13796;SHT30;40911;51.552;9.874;2023-02-28T12:50:08;4.65;57.67
13796;SHT30;40911;51.552;9.874;2023-02-28T12:52:39;4.83;57.36
13796;SHT30;40911;51.552;9.874;2023-02-28T12:55:05;5.03;57.61
13796;SHT30;40911;51.552;9.874;2023-02-28T12:57:34;5.01;57.05
13796;SHT30;40911;51.552;9.874;2023-02-28T13:00:00;4.90;57.18
13796;SHT30;40911;51.552;9.874;2023-02-28T13:03:03;4.59;57.75
13796;SHT30;40911;51.552;9.874;2023-02-28T13:05:44;4.76;57.94
13796;SHT30;40911;51.552;9.874;2023-02-28T13:08:27;4.79;57.96
13796;SHT30;40911;51.552;9.874;2023-02-28T13:10:56;4.89;57.72
13796;SHT30;40911;51.552;9.874;2023-02-28T13:13:18;5.01;58.18
13796;SHT30;40911;51.552;9.874;2023-02-28T13:15:41;4.99;58.23
13796;SHT30;40911;51.552;9.874;2023-02-28T13:18:29;5.06;58.36
13796;SHT30;40911;51.552;9.874;2023-02-28T13:20:51;4.83;57.86
13796;SHT30;40911;51.552;9.874;2023-02-28T13:23:38;4.82;58.16
13796;SHT30;40911;51.552;9.874;2023-02-28T13:26:01;4.76;58.16
13796;SHT30;40911;51.552;9.874;2023-02-28T13:31:27;4.79;58.47
13796;SHT30;40911;51.552;9.874;2023-02-28T13:34:15;4.97;57.74
13796;SHT30;40911;51.552;9.874;2023-02-28T13:36:37;4.80;58.35
13796;SHT30;40911;51.552;9.874;2023-02-28T13:38:59;4.73;58.29
13796;SHT30;40911;51.552;9.874;2023-02-28T13:41:41;4.80;57.84
13796;SHT30;40911;51.552;9.874;2023-02-28T13:44:05;4.82;58.15
13796;SHT30;40911;51.552;9.874;2023-02-28T13:46:26;4.71;58.63
13796;SHT30;40911;51.552;9.874;2023-02-28T13:48:48;4.83;58.19
13796;SHT30;40911;51.552;9.874;2023-02-28T13:51:39;4.78;58.22
13796;SHT30;40911;51.552;9.874;2023-02-28T13:54:03;4.87;57.98
13796;SHT30;40911;51.552;9.874;2023-02-28T13:56:40;4.86;58.02
13796;SHT30;40911;51.552;9.874;2023-02-28T13:59:15;4.86;57.99
13796;SHT30;40911;51.552;9.874;2023-02-28T14:01:59;4.75;58.18
13796;SHT30;40911;51.552;9.874;2023-02-28T14:04:49;4.79;58.74
13796;SHT30;40911;51.552;9.874;2023-02-28T14:07:19;4.86;58.78
13796;SHT30;40911;51.552;9.874;2023-02-28T14:09:46;4.89;58.60
13796;SHT30;40911;51.552;9.874;2023-02-28T14:15:25;4.85;58.49
13796;SHT30;40911;51.552;9.874;2023-02-28T14:17:51;4.65;58.83
13796;SHT30;40911;51.552;9.874;2023-02-28T14:20:15;4.68;59.08
13796;SHT30;40911;51.552;9.874;2023-02-28T14:22:51;4.85;59.30
13796;SHT30;40911;51.552;9.874;2023-02-28T14:25:23;4.85;59.23
13796;SHT30;40911;51.552;9.874;2023-02-28T14:27:58;4.71;59.70
13796;SHT30;40911;51.552;9.874;2023-02-28T14:30:52;4.69;59.17
13796;SHT30;40911;51.552;9.874;2023-02-28T14:33:25;5.01;59.52
13796;SHT30;40911;51.552;9.874;2023-02-28T14:36:00;4.95;59.00
13796;SHT30;40911;51.552;9.874;2023-02-28T14:38:27;4.49;59.60
13796;SHT30;40911;51.552;9.874;2023-02-28T14:40:52;4.62;59.67
13796;SHT30;40911;51.552;9.874;2023-02-28T14:43:20;4.72;60.31
13796;SHT30;40911;51.552;9.874;2023-02-28T14:45:43;4.58;59.80
13796;SHT30;40911;51.552;9.874;2023-02-28T14:48:09;4.68;59.91
13796;SHT30;40911;51.552;9.874;2023-02-28T14:50:33;4.62;60.23
13796;SHT30;40911;51.552;9.874;2023-02-28T14:52:55;4.58;60.05
13796;SHT30;40911;51.552;9.874;2023-02-28T14:55:23;4.54;60.09
13796;SHT30;40911;51.552;9.874;2023-02-28T14:57:51;4.62;60.05
13796;SHT30;40911;51.552;9.874;2023-02-28T15:00:16;4.58;59.82
13796;SHT30;40911;51.552;9.874;2023-02-28T15:02:39;4.69;60.36
13796;SHT30;40911;51.552;9.874;2023-02-28T15:05:16;4.71;60.34
13796;SHT30;40911;51.552;9.874;2023-02-28T15:07:40;4.55;60.30
13796;SHT30;40911;51.552;9.874;2023-02-28T15:10:20;4.73;60.07
13796;SHT30;40911;51.552;9.874;2023-02-28T15:12:48;4.71;60.05
13796;SHT30;40911;51.552;9.874;2023-02-28T15:15:15;4.51;60.36
13796;SHT30;40911;51.552;9.874;2023-02-28T15:17:36;4.47;60.69
13796;SHT30;40911;51.552;9.874;2023-02-28T15:19:58;4.48;60.45
13796;SHT30;40911;51.552;9.874;2023-02-28T15:22:21;4.59;60.71
13796;SHT30;40911;51.552;9.874;2023-02-28T15:24:47;4.59;60.53
13796;SHT30;40911;51.552;9.874;2023-02-28T15:27:13;4.68;60.76
13796;SHT30;40911;51.552;9.874;2023-02-28T15:29:43;4.54;60.85
13796;SHT30;40911;51.552;9.874;2023-02-28T15:32:07;4.58;60.72
13796;SHT30;40911;51.552;9.874;2023-02-28T15:34:35;4.55;60.64
13796;SHT30;40911;51.552;9.874;2023-02-28T15:36:56;4.65;60.82
13796;SHT30;40911;51.552;9.874;2023-02-28T15:39:21;4.72;60.47
13796;SHT30;40911;51.552;9.874;2023-02-28T15:41:42;4.78;60.20
13796;SHT30;40911;51.552;9.874;2023-02-28T15:44:17;4.72;60.07
13796;SHT30;40911;51.552;9.874;2023-02-28T15:46:39;4.69;60.16
13796;SHT30;40911;51.552;9.874;2023-02-28T15:49:02;4.78;59.91
13796;SHT30;40911;51.552;9.874;2023-02-28T15:51:24;4.87;60.10